Time;durP1;ratioP1;P1;durP2;ratioP2;P2;SDS_P1;SDS_P2;PMS_P1;PMS_P2;Temp;Humidity;BMP_temperature;BMP_pressure;BME280_temperature;BME280_humidity;BME280_pressure;Samples;Min_cycle;Max_cycle;Signal;HPM_P1;HPM_P2
2023/03/13 00:01:56;;;;;;;34.97;7.20;;;8.50;99.90;;;;;;5031731;28;20045;-71
2023/03/13 00:04:22;;;;;;;22.13;7.40;;;8.50;99.90;;;;;;5031589;28;20567;-71
2023/03/13 00:06:47;;;;;;;34.42;7.70;;;8.50;99.90;;;;;;5031395;28;20408;-72
2023/03/13 00:09:15;;;;;;;32.47;8.80;;;8.50;99.90;;;;;;5031633;28;20524;-71
2023/03/13 00:11:41;;;;;;;34.35;7.80;;;8.50;99.90;;;;;;5031591;28;20550;-71
2023/03/13 00:14:07;;;;;;;33.58;8.32;;;8.50;99.90;;;;;;5031542;28;20037;-71
2023/03/13 00:16:34;;;;;;;28.98;6.57;;;8.50;99.90;;;;;;5013842;28;20176;-71
2023/03/13 00:19:00;;;;;;;33.85;7.82;;;8.50;99.90;;;;;;5031534;28;20528;-71
2023/03/13 00:21:27;;;;;;;29.13;8.15;;;8.50;99.90;;;;;;5013757;28;20116;-71
2023/03/13 00:23:52;;;;;;;28.65;7.65;;;8.50;99.90;;;;;;5031118;28;20496;-71
2023/03/13 00:26:21;;;;;;;44.03;9.07;;;8.40;99.90;;;;;;5034590;28;20049;-71
2023/03/13 00:28:47;;;;;;;42.17;8.55;;;8.40;99.90;;;;;;5016894;28;20116;-71
2023/03/13 00:31:14;;;;;;;32.13;7.38;;;8.50;99.90;;;;;;5017835;28;20045;-70
2023/03/13 00:33:43;;;;;;;29.35;6.85;;;8.50;99.90;;;;;;5017498;28;20048;-70
2023/03/13 00:36:11;;;;;;;43.25;8.77;;;8.40;99.90;;;;;;5017688;28;20500;-70
2023/03/13 00:38:37;;;;;;;27.25;7.15;;;8.40;99.90;;;;;;5017833;28;20055;-70
2023/03/13 00:41:05;;;;;;;40.13;8.40;;;8.40;99.90;;;;;;5035696;28;20120;-70
2023/03/13 00:43:31;;;;;;;47.90;9.18;;;8.40;99.90;;;;;;5035130;28;20501;-70
2023/03/13 00:45:57;;;;;;;35.80;7.88;;;8.40;99.90;;;;;;5035372;28;20045;-71
2023/03/13 00:48:23;;;;;;;33.42;7.20;;;8.40;99.90;;;;;;5035119;28;20045;-71
2023/03/13 00:50:48;;;;;;;29.55;8.60;;;8.40;99.90;;;;;;5035050;28;20033;-70
2023/03/13 00:53:14;;;;;;;33.42;7.95;;;8.30;99.90;;;;;;5035197;28;20037;-70
2023/03/13 00:55:57;;;;;;;34.88;8.05;;;8.40;99.90;;;;;;5035042;28;20103;-71
2023/03/13 00:58:25;;;;;;;29.30;7.57;;;8.30;99.90;;;;;;5035121;28;20496;-71
2023/03/13 01:00:51;;;;;;;40.08;7.47;;;8.30;99.90;;;;;;5034948;28;20381;-71
2023/03/13 01:03:17;;;;;;;36.08;7.78;;;8.30;99.90;;;;;;5034681;28;20037;-71
2023/03/13 01:05:42;;;;;;;36.63;9.05;;;8.40;99.90;;;;;;5000674;28;20068;-70
2023/03/13 01:08:08;;;;;;;37.22;9.27;;;8.40;99.90;;;;;;5034554;28;20037;-71
2023/03/13 01:10:34;;;;;;;32.97;8.48;;;8.40;99.90;;;;;;5017352;28;20038;-71
2023/03/13 01:13:00;;;;;;;38.42;8.48;;;8.30;99.90;;;;;;5034867;28;20033;-71
2023/03/13 01:15:25;;;;;;;36.33;8.05;;;8.30;99.90;;;;;;5034665;28;20047;-71
2023/03/13 01:17:51;;;;;;;26.95;7.30;;;8.30;99.90;;;;;;5034508;28;20037;-71
2023/03/13 01:20:17;;;;;;;26.02;7.70;;;8.40;99.90;;;;;;5034545;28;20047;-71
2023/03/13 01:22:42;;;;;;;39.08;9.60;;;8.30;99.90;;;;;;5034743;28;20069;-71
2023/03/13 01:25:08;;;;;;;32.58;7.82;;;8.30;99.90;;;;;;5034246;28;20037;-71
2023/03/13 01:27:34;;;;;;;36.78;9.15;;;8.30;99.90;;;;;;5016670;28;20038;-71
2023/03/13 01:29:59;;;;;;;39.28;9.57;;;8.30;99.90;;;;;;5034525;28;20041;-71
2023/03/13 01:32:25;;;;;;;37.50;8.02;;;8.30;99.90;;;;;;5036084;28;20071;-71
2023/03/13 01:34:50;;;;;;;26.65;7.05;;;8.30;99.90;;;;;;5050127;28;20060;-71
2023/03/13 01:37:16;;;;;;;33.40;8.55;;;8.40;99.90;;;;;;5044762;28;20056;-73
2023/03/13 01:39:41;;;;;;;29.98;8.40;;;8.30;99.90;;;;;;5053990;28;20047;-73
2023/03/13 01:42:07;;;;;;;31.15;7.28;;;8.30;99.90;;;;;;5054061;28;20044;-71
2023/03/13 01:44:53;;;;;;;33.58;8.00;;;8.30;99.90;;;;;;5035869;28;20088;-70
2023/03/13 01:47:19;;;;;;;32.15;7.85;;;8.40;99.90;;;;;;5053872;28;20037;-71
2023/03/13 01:49:45;;;;;;;31.35;7.38;;;8.30;99.90;;;;;;5054158;28;20409;-70
2023/03/13 01:52:16;;;;;;;27.05;6.20;;;8.30;99.90;;;;;;5036331;28;20068;-71
2023/03/13 01:55:04;;;;;;;28.00;7.75;;;8.30;99.90;;;;;;5035762;28;20044;-70
2023/03/13 01:57:33;;;;;;;33.72;7.28;;;8.30;99.90;;;;;;5053456;28;20404;-71
2023/03/13 02:00:18;;;;;;;24.00;6.03;;;8.30;99.90;;;;;;5054011;28;20424;-70
2023/03/13 02:02:52;;;;;;;30.20;7.45;;;8.40;99.90;;;;;;5053875;28;20124;-71
2023/03/13 02:05:19;;;;;;;;;;;8.40;99.90;;;;;;5054012;28;20103;-71
2023/03/13 02:07:47;;;;;;;31.70;8.35;;;8.30;99.90;;;;;;5053475;28;19921;-71
2023/03/13 02:10:15;;;;;;;33.20;6.85;;;8.40;99.90;;;;;;5053464;28;20041;-71
2023/03/13 02:12:41;;;;;;;26.13;6.60;;;8.40;99.90;;;;;;5035722;28;20404;-71
2023/03/13 02:15:12;;;;;;;22.38;6.15;;;8.40;99.90;;;;;;5035402;28;20037;-71
2023/03/13 02:17:39;;;;;;;26.75;7.18;;;8.40;99.90;;;;;;5035783;28;20119;-71
2023/03/13 02:20:06;;;;;;;22.73;7.15;;;8.40;99.90;;;;;;5053455;28;20045;-71
2023/03/13 02:22:40;;;;;;;37.13;8.88;;;8.40;99.90;;;;;;5053278;28;20385;-71
2023/03/13 02:25:26;;;;;;;34.92;7.68;;;8.40;99.90;;;;;;5053134;28;20044;-73
2023/03/13 02:28:02;;;;;;;32.00;8.20;;;8.50;99.90;;;;;;5053234;28;20110;-73
2023/03/13 02:30:28;;;;;;;37.75;7.38;;;8.40;99.90;;;;;;5053269;28;20413;-73
2023/03/13 02:32:54;;;;;;;26.90;7.68;;;8.40;99.90;;;;;;5053097;28;20044;-73
2023/03/13 02:35:22;;;;;;;30.27;8.07;;;8.40;99.90;;;;;;5053057;28;20045;-73
2023/03/13 02:37:53;;;;;;;29.55;8.02;;;8.50;99.90;;;;;;5035105;28;20126;-73
2023/03/13 02:40:26;;;;;;;28.65;9.45;;;8.40;99.90;;;;;;5035164;28;20503;-73
2023/03/13 02:42:53;;;;;;;24.45;7.85;;;8.50;99.90;;;;;;5034983;28;20033;-73
2023/03/13 02:45:19;;;;;;;31.33;8.70;;;8.40;99.90;;;;;;5052569;28;20118;-73
2023/03/13 02:47:44;;;;;;;27.33;7.53;;;8.50;99.90;;;;;;5034048;28;20088;-73
2023/03/13 02:50:11;;;;;;;27.20;7.30;;;8.40;99.90;;;;;;5052848;28;20048;-73
2023/03/13 02:52:42;;;;;;;25.80;7.32;;;8.50;99.90;;;;;;5034706;28;20554;-73
2023/03/13 02:55:14;;;;;;;25.83;6.78;;;8.40;99.90;;;;;;5018017;28;20087;-72
2023/03/13 02:57:39;;;;;;;14.52;6.00;;;8.40;99.90;;;;;;5034282;28;20040;-73
2023/03/13 03:00:06;;;;;;;15.55;6.50;;;8.50;99.90;;;;;;5034654;28;20685;-73
2023/03/13 03:02:32;;;;;;;17.77;6.53;;;8.60;99.90;;;;;;5034781;28;20033;-73
2023/03/13 03:04:57;;;;;;;21.23;6.80;;;8.60;99.90;;;;;;5052440;28;20041;-71
2023/03/13 03:07:23;;;;;;;13.70;5.28;;;8.60;99.90;;;;;;5052242;28;20041;-71
2023/03/13 03:09:48;;;;;;;16.58;5.30;;;8.60;99.90;;;;;;5034573;28;20048;-70
2023/03/13 03:12:14;;;;;;;17.25;4.82;;;8.60;99.90;;;;;;5052452;28;20044;-71
2023/03/13 03:14:39;;;;;;;15.10;5.60;;;8.60;99.90;;;;;;5052015;28;20508;-70
2023/03/13 03:17:05;;;;;;;13.23;4.95;;;8.60;99.90;;;;;;5052369;28;20041;-70
2023/03/13 03:19:30;;;;;;;18.48;6.32;;;8.60;99.90;;;;;;5034390;28;20511;-71
2023/03/13 03:21:56;;;;;;;8.75;4.57;;;8.60;99.90;;;;;;5034246;28;20048;-70
2023/03/13 03:24:21;;;;;;;16.30;5.07;;;8.70;99.90;;;;;;5052030;28;20041;-71
2023/03/13 03:26:47;;;;;;;9.95;5.07;;;8.70;99.90;;;;;;5051994;28;20029;-70
2023/03/13 03:29:13;;;;;;;12.70;4.63;;;8.70;99.90;;;;;;5051854;28;20120;-71
2023/03/13 03:31:38;;;;;;;12.57;5.32;;;8.80;99.90;;;;;;5034195;28;20033;-71
2023/03/13 03:34:04;;;;;;;15.65;4.05;;;8.70;99.90;;;;;;5051973;28;20037;-71
2023/03/13 03:36:29;;;;;;;9.23;4.47;;;8.80;99.90;;;;;;5052059;28;20055;-71
2023/03/13 03:38:55;;;;;;;5.47;3.85;;;8.90;99.90;;;;;;5051869;28;20423;-71
2023/03/13 03:41:21;;;;;;;9.25;4.03;;;8.80;99.90;;;;;;5052025;28;20477;-71
2023/03/13 03:43:47;;;;;;;9.80;4.25;;;8.90;99.90;;;;;;5051608;28;20039;-71
2023/03/13 03:46:13;;;;;;;6.97;3.88;;;8.90;99.90;;;;;;5052076;28;20036;-71
2023/03/13 03:48:39;;;;;;;14.35;4.70;;;9.00;99.90;;;;;;5051739;28;20083;-71
2023/03/13 03:51:05;;;;;;;13.55;4.70;;;8.90;99.90;;;;;;5051876;28;20117;-71
2023/03/13 03:53:31;;;;;;;8.18;4.00;;;9.00;99.90;;;;;;5051454;28;20106;-71
2023/03/13 03:55:57;;;;;;;8.73;4.60;;;9.00;99.90;;;;;;5051754;28;20064;-71
2023/03/13 03:58:22;;;;;;;13.80;4.68;;;9.00;99.90;;;;;;5051487;28;20076;-71
2023/03/13 04:00:48;;;;;;;8.48;4.28;;;8.90;99.90;;;;;;5051563;28;20037;-71
2023/03/13 04:03:15;;;;;;;7.30;3.60;;;9.10;99.90;;;;;;5051592;28;20041;-71
2023/03/13 04:05:41;;;;;;;8.82;3.95;;;9.10;99.90;;;;;;5033644;28;20077;-71
2023/03/13 04:08:08;;;;;;;11.77;3.92;;;9.10;99.90;;;;;;5051392;28;20449;-71
2023/03/13 04:10:34;;;;;;;7.82;4.25;;;9.20;99.90;;;;;;5051527;28;20125;-71
2023/03/13 04:13:00;;;;;;;5.10;3.55;;;9.20;99.90;;;;;;5051334;28;20044;-71
2023/03/13 04:15:25;;;;;;;6.65;3.67;;;9.20;99.90;;;;;;5051069;28;20029;-71
2023/03/13 04:17:51;;;;;;;9.98;4.25;;;9.20;99.90;;;;;;5033540;28;20037;-71
2023/03/13 04:20:16;;;;;;;6.88;3.75;;;9.30;99.90;;;;;;5021207;28;20128;-71
2023/03/13 04:22:42;;;;;;;8.43;3.70;;;9.20;99.90;;;;;;5031323;28;20084;-71
2023/03/13 04:25:08;;;;;;;9.45;3.60;;;9.30;99.90;;;;;;5031035;28;20042;-71
2023/03/13 04:27:34;;;;;;;5.40;3.88;;;9.30;99.90;;;;;;5031081;28;20497;-71
2023/03/13 04:30:00;;;;;;;5.43;3.70;;;9.30;99.90;;;;;;5014060;28;20048;-71
2023/03/13 04:32:25;;;;;;;7.90;4.60;;;9.30;99.90;;;;;;5031616;28;20566;-71
2023/03/13 04:34:51;;;;;;;9.15;4.55;;;9.40;99.90;;;;;;5031265;28;20030;-71
2023/03/13 04:37:17;;;;;;;10.00;4.55;;;9.40;99.90;;;;;;5031207;28;20033;-71
2023/03/13 04:39:42;;;;;;;7.07;4.97;;;9.50;99.90;;;;;;5031457;28;20120;-71
2023/03/13 04:42:10;;;;;;;11.52;5.93;;;9.50;99.90;;;;;;5013565;28;20049;-70
2023/03/13 04:44:35;;;;;;;10.18;5.43;;;9.60;99.90;;;;;;5031228;28;20053;-71
2023/03/13 04:47:01;;;;;;;8.13;5.43;;;9.70;99.90;;;;;;5030997;28;20034;-71
2023/03/13 04:49:26;;;;;;;8.40;5.55;;;9.70;99.90;;;;;;5031199;28;20037;-71
2023/03/13 04:51:52;;;;;;;10.50;5.35;;;9.80;99.90;;;;;;5013588;28;20048;-71
2023/03/13 04:54:18;;;;;;;9.27;6.18;;;9.70;99.90;;;;;;5031037;28;20044;-71
2023/03/13 04:56:43;;;;;;;10.80;6.53;;;9.90;99.90;;;;;;5031169;28;20072;-71
2023/03/13 04:59:11;;;;;;;11.95;6.47;;;9.80;99.90;;;;;;5031280;28;20075;-71
2023/03/13 05:01:36;;;;;;;14.00;7.40;;;9.90;99.90;;;;;;5031225;28;20404;-71
2023/03/13 05:04:03;;;;;;;13.70;7.82;;;9.90;99.90;;;;;;5030997;28;20033;-71
2023/03/13 05:06:29;;;;;;;13.05;7.45;;;10.00;99.90;;;;;;5031256;28;20049;-71
2023/03/13 05:08:54;;;;;;;12.60;7.50;;;10.00;99.90;;;;;;5030882;28;20049;-71
2023/03/13 05:11:20;;;;;;;14.07;7.93;;;10.10;99.90;;;;;;5032155;28;20113;-71
2023/03/13 05:13:46;;;;;;;18.02;8.48;;;10.00;99.90;;;;;;5034663;28;20449;-71
2023/03/13 05:16:11;;;;;;;17.20;8.80;;;10.10;99.90;;;;;;5017000;28;20041;-71
2023/03/13 05:18:38;;;;;;;13.32;8.23;;;10.20;99.90;;;;;;5034745;28;20409;-71
2023/03/13 05:21:04;;;;;;;12.50;7.50;;;10.20;99.90;;;;;;5034157;28;20080;-71
2023/03/13 05:23:30;;;;;;;14.57;7.82;;;10.20;99.90;;;;;;5034601;28;20386;-71
2023/03/13 05:25:55;;;;;;;14.88;8.38;;;10.20;99.90;;;;;;5034433;28;20132;-71
2023/03/13 05:28:21;;;;;;;15.43;9.25;;;10.20;99.90;;;;;;5034368;28;20041;-71
2023/03/13 05:30:46;;;;;;;19.50;9.88;;;10.40;99.90;;;;;;5034627;28;20493;-71
2023/03/13 05:33:12;;;;;;;19.50;9.90;;;10.40;99.90;;;;;;5016511;28;20069;-71
2023/03/13 05:35:37;;;;;;;22.58;10.70;;;10.40;99.90;;;;;;5016458;28;20095;-71
2023/03/13 05:38:03;;;;;;;19.50;10.57;;;10.50;99.90;;;;;;5016614;28;20037;-71
2023/03/13 05:40:28;;;;;;;18.77;10.32;;;10.50;99.90;;;;;;5016461;28;20049;-71
2023/03/13 05:42:54;;;;;;;22.48;11.15;;;10.60;99.90;;;;;;5016510;28;20099;-71
2023/03/13 05:45:20;;;;;;;19.35;9.90;;;10.60;99.90;;;;;;5016298;28;20049;-71
2023/03/13 05:47:46;;;;;;;16.90;9.15;;;10.70;99.90;;;;;;5033853;28;20057;-71
2023/03/13 05:50:11;;;;;;;19.70;9.20;;;10.70;99.90;;;;;;5034165;28;20041;-71
2023/03/13 05:52:37;;;;;;;17.85;9.88;;;10.80;99.90;;;;;;5034040;28;20037;-71
2023/03/13 05:55:02;;;;;;;18.60;9.05;;;10.80;99.90;;;;;;5033602;28;20040;-71
2023/03/13 05:57:28;;;;;;;16.25;8.15;;;10.80;99.90;;;;;;5034074;28;20042;-71
2023/03/13 05:59:53;;;;;;;15.15;7.57;;;10.90;99.90;;;;;;5016144;28;20493;-71
2023/03/13 06:02:19;;;;;;;16.73;8.07;;;10.90;99.90;;;;;;5033843;28;20037;-71
2023/03/13 06:04:46;;;;;;;13.05;7.43;;;11.00;99.90;;;;;;5015969;28;20045;-71
2023/03/13 06:07:11;;;;;;;15.13;7.45;;;11.10;99.90;;;;;;4999359;28;20095;-71
2023/03/13 06:09:37;;;;;;;19.38;7.95;;;11.00;99.90;;;;;;5033650;28;20041;-71
2023/03/13 06:12:03;;;;;;;17.63;8.00;;;11.10;99.90;;;;;;5033904;28;20588;-71
2023/03/13 06:14:28;;;;;;;21.30;9.02;;;11.20;99.90;;;;;;5015481;28;20048;-72
2023/03/13 06:16:54;;;;;;;14.10;7.45;;;11.20;99.90;;;;;;5015774;28;20068;-72
2023/03/13 06:19:23;;;;;;;13.40;7.10;;;11.10;99.90;;;;;;5033621;28;20068;-71
2023/03/13 06:21:48;;;;;;;20.25;9.02;;;11.20;99.90;;;;;;5033370;28;20047;-71
2023/03/13 06:24:14;;;;;;;12.93;7.93;;;11.20;99.90;;;;;;5032175;28;20038;-71
2023/03/13 06:26:40;;;;;;;19.35;7.68;;;11.20;99.90;;;;;;5033481;28;20489;-71
2023/03/13 06:29:05;;;;;;;17.27;8.63;;;11.10;99.90;;;;;;5033440;28;20081;-71
2023/03/13 06:31:31;;;;;;;18.73;7.75;;;11.10;99.90;;;;;;5033461;28;20048;-71
2023/03/13 06:33:56;;;;;;;19.27;9.35;;;11.20;99.90;;;;;;5033043;28;20085;-71
2023/03/13 06:36:23;;;;;;;15.80;8.95;;;11.20;99.90;;;;;;5033115;28;20121;-71
2023/03/13 06:38:49;;;;;;;20.73;10.73;;;11.20;99.90;;;;;;5033004;28;20049;-71
2023/03/13 06:41:15;;;;;;;18.27;9.93;;;11.20;99.90;;;;;;5033304;28;20048;-71
2023/03/13 06:43:41;;;;;;;20.65;9.70;;;11.20;99.90;;;;;;5032903;28;20033;-71
2023/03/13 06:46:10;;;;;;;19.30;8.77;;;11.20;99.90;;;;;;5015389;28;20041;-71
2023/03/13 06:48:36;;;;;;;11.65;8.32;;;11.30;99.90;;;;;;5032868;28;20049;-71
2023/03/13 06:51:01;;;;;;;17.45;7.95;;;11.20;99.90;;;;;;5022175;28;20041;-71
2023/03/13 06:53:27;;;;;;;19.92;8.45;;;11.30;99.90;;;;;;5031919;28;20033;-70
2023/03/13 06:55:52;;;;;;;16.75;8.80;;;11.30;99.90;;;;;;5052292;28;20557;-73
2023/03/13 06:58:18;;;;;;;17.02;8.57;;;11.20;99.90;;;;;;5034630;28;20045;-73
2023/03/13 07:00:44;;;;;;;23.60;9.02;;;11.20;99.90;;;;;;5052659;28;20068;-73
2023/03/13 07:03:10;;;;;;;21.02;8.18;;;11.20;99.90;;;;;;5034562;28;20041;-73
2023/03/13 07:05:36;;;;;;;19.77;9.52;;;11.20;99.90;;;;;;5052423;28;20037;-74
2023/03/13 07:08:02;;;;;;;20.80;9.68;;;11.30;99.90;;;;;;5034309;28;20084;-73
2023/03/13 07:10:30;;;;;;;25.08;8.65;;;11.30;99.90;;;;;;5052747;28;20068;-74
2023/03/13 07:12:56;;;;;;;18.88;8.05;;;11.30;99.90;;;;;;5034570;28;20124;-73
2023/03/13 07:15:21;;;;;;;18.90;8.88;;;11.30;99.90;;;;;;5034314;28;20116;-74
2023/03/13 07:17:47;;;;;;;18.13;8.88;;;11.20;99.90;;;;;;5034653;28;20049;-74
2023/03/13 07:20:12;;;;;;;17.15;8.57;;;11.30;99.90;;;;;;5034416;28;20037;-74
2023/03/13 07:22:38;;;;;;;18.90;9.93;;;11.30;99.90;;;;;;5034396;28;20041;-74
2023/03/13 07:25:04;;;;;;;24.13;9.70;;;11.20;99.90;;;;;;5034176;28;20185;-73
2023/03/13 07:27:30;;;;;;;20.92;9.40;;;11.20;99.90;;;;;;5034267;28;20045;-73
2023/03/13 07:29:56;;;;;;;14.93;8.20;;;11.30;99.90;;;;;;5034354;28;20068;-73
2023/03/13 07:32:22;;;;;;;19.23;9.02;;;11.40;99.90;;;;;;5034430;28;20517;-73
2023/03/13 07:34:47;;;;;;;13.80;8.02;;;11.40;99.90;;;;;;5050089;28;20040;-73
2023/03/13 07:37:14;;;;;;;15.10;7.68;;;11.40;99.90;;;;;;5033499;28;20033;-73
2023/03/13 07:39:41;;;;;;;16.65;8.25;;;11.30;99.90;;;;;;5033724;28;20041;-73
2023/03/13 07:42:08;;;;;;;19.02;8.52;;;11.40;99.90;;;;;;5034153;28;20075;-73
2023/03/13 07:44:33;;;;;;;18.55;8.68;;;11.40;99.90;;;;;;5051450;28;20051;-73
2023/03/13 07:47:00;;;;;;;18.58;8.43;;;11.40;99.90;;;;;;5051550;28;20120;-73
2023/03/13 07:49:25;;;;;;;15.55;7.88;;;11.40;99.90;;;;;;5051596;28;20094;-73
2023/03/13 07:51:51;;;;;;;18.48;7.78;;;11.30;99.90;;;;;;5051351;28;20037;-73
2023/03/13 07:54:16;;;;;;;14.85;6.85;;;11.40;99.90;;;;;;5051554;28;20041;-73
2023/03/13 07:56:42;;;;;;;14.50;7.13;;;11.40;99.90;;;;;;5032916;28;20100;-73
2023/03/13 07:59:08;;;;;;;15.93;7.60;;;11.40;99.90;;;;;;5051662;28;20045;-73
2023/03/13 08:01:34;;;;;;;15.88;7.60;;;11.30;99.90;;;;;;5051450;28;20076;-73
2023/03/13 08:04:00;;;;;;;13.93;7.38;;;11.40;99.90;;;;;;5051205;28;20075;-73
2023/03/13 08:06:26;;;;;;;15.68;8.10;;;11.40;99.90;;;;;;5051220;28;20476;-73
2023/03/13 08:08:55;;;;;;;13.95;7.00;;;11.30;99.90;;;;;;5051135;28;20523;-73
2023/03/13 08:11:24;;;;;;;16.00;6.88;;;11.30;99.90;;;;;;5051554;28;20037;-73
2023/03/13 08:13:50;;;;;;;13.82;5.85;;;11.30;99.90;;;;;;5033619;28;20037;-73
2023/03/13 08:16:18;;;;;;;10.38;5.85;;;11.40;99.90;;;;;;5033561;28;20048;-73
2023/03/13 08:18:47;;;;;;;10.85;5.53;;;11.50;99.90;;;;;;5051023;28;20083;-73
2023/03/13 08:21:19;;;;;;;9.73;5.10;;;11.50;99.90;;;;;;5033466;28;20028;-73
2023/03/13 08:23:46;;;;;;;12.95;4.53;;;11.40;99.90;;;;;;5050878;28;20163;-73
2023/03/13 08:26:17;;;;;;;7.43;5.00;;;11.50;99.90;;;;;;5051536;28;20076;-73
2023/03/13 08:28:45;;;;;;;9.13;4.80;;;11.40;99.90;;;;;;5051227;28;20076;-73
2023/03/13 08:31:14;;;;;;;7.50;3.63;;;11.50;99.90;;;;;;5051346;28;20041;-73
2023/03/13 08:33:41;;;;;;;8.70;4.13;;;11.40;99.90;;;;;;5051216;28;20032;-73
2023/03/13 08:36:12;;;;;;;9.73;3.75;;;11.60;99.90;;;;;;5033719;28;20045;-73
2023/03/13 08:38:40;;;;;;;6.95;3.53;;;11.70;99.90;;;;;;5051119;28;20052;-73
2023/03/13 08:41:07;;;;;;;9.88;3.47;;;11.70;99.90;;;;;;5033493;28;20163;-73
2023/03/13 08:43:32;;;;;;;5.75;3.05;;;11.70;99.90;;;;;;5051026;28;20048;-73
2023/03/13 08:45:58;;;;;;;6.47;2.60;;;11.90;99.90;;;;;;5051598;28;20490;-73
2023/03/13 08:48:23;;;;;;;9.25;3.95;;;12.00;99.90;;;;;;5055240;28;20047;-73
2023/03/13 08:51:06;;;;;;;9.07;2.60;;;12.10;99.90;;;;;;5055137;28;20051;-73
2023/03/13 08:53:32;;;;;;;6.35;2.22;;;12.10;99.90;;;;;;5037267;28;20049;-73
2023/03/13 08:55:58;;;;;;;4.43;2.03;;;12.20;99.90;;;;;;5055095;28;20033;-73
2023/03/13 08:58:24;;;;;;;5.75;3.47;;;12.20;99.90;;;;;;5054716;28;20400;-73
2023/03/13 09:00:50;;;;;;;6.80;2.55;;;12.20;99.90;;;;;;5054921;28;20025;-73
2023/03/13 09:03:16;;;;;;;5.97;2.63;;;12.50;99.90;;;;;;5054807;28;20045;-73
2023/03/13 09:05:43;;;;;;;7.70;1.85;;;12.60;99.90;;;;;;5054495;28;20037;-73
2023/03/13 09:08:08;;;;;;;7.10;2.08;;;12.70;99.90;;;;;;5054510;28;20041;-73
2023/03/13 09:10:35;;;;;;;6.35;1.90;;;12.80;99.90;;;;;;5054656;28;20101;-73
2023/03/13 09:13:01;;;;;;;5.13;2.28;;;12.90;99.90;;;;;;5036450;28;20052;-73
2023/03/13 09:15:27;;;;;;;8.70;2.90;;;12.90;99.90;;;;;;5054629;28;20044;-73
2023/03/13 09:17:53;;;;;;;5.93;2.38;;;12.80;99.90;;;;;;5054606;28;20048;-73
2023/03/13 09:20:18;;;;;;;8.63;2.58;;;12.70;99.90;;;;;;5054677;28;20098;-73
2023/03/13 09:22:44;;;;;;;4.90;2.00;;;12.70;99.90;;;;;;5036593;28;20041;-73
2023/03/13 09:25:11;;;;;;;5.07;2.00;;;12.60;99.90;;;;;;5054262;28;20072;-73
2023/03/13 09:27:37;;;;;;;5.25;2.42;;;12.60;99.90;;;;;;5054226;28;20124;-73
2023/03/13 09:30:03;;;;;;;5.63;2.50;;;12.50;99.90;;;;;;5054542;28;20455;-73
2023/03/13 09:32:29;;;;;;;6.47;2.55;;;12.50;99.90;;;;;;5054476;28;20037;-73
2023/03/13 09:34:54;;;;;;;8.70;2.78;;;12.60;99.90;;;;;;5054131;28;20537;-73
2023/03/13 09:37:20;;;;;;;10.15;3.03;;;12.60;99.90;;;;;;5036124;28;20044;-73
2023/03/13 09:39:47;;;;;;;11.55;2.90;;;12.50;99.90;;;;;;5054116;28;20053;-73
2023/03/13 09:42:24;;;;;;;6.10;2.60;;;12.30;99.90;;;;;;5036151;28;20033;-73
2023/03/13 09:45:15;;;;;;;10.63;3.03;;;12.30;99.90;;;;;;5035934;28;20102;-73
2023/03/13 09:47:49;;;;;;;9.40;3.03;;;12.30;99.90;;;;;;5053918;28;20056;-73
2023/03/13 09:50:24;;;;;;;9.95;3.47;;;12.30;99.90;;;;;;5036528;28;20392;-73
2023/03/13 09:52:54;;;;;;;7.53;2.97;;;12.40;99.90;;;;;;5035976;28;20045;-73
2023/03/13 09:55:25;;;;;;;7.13;2.40;;;12.30;99.90;;;;;;5035093;28;20219;-73
2023/03/13 09:58:03;;;;;;;9.60;3.00;;;12.30;99.90;;;;;;5043172;28;20114;-73
2023/03/13 10:00:35;;;;;;;5.47;2.53;;;12.20;99.90;;;;;;5041259;28;20038;-73
2023/03/13 10:03:09;;;;;;;10.68;3.38;;;12.30;99.90;;;;;;5042243;28;20060;-73
2023/03/13 10:05:36;;;;;;;9.38;2.85;;;12.50;99.90;;;;;;5035720;28;20045;-73
2023/03/13 10:08:21;;;;;;;7.30;3.30;;;12.60;99.90;;;;;;5053528;28;20496;-73
2023/03/13 10:11:05;;;;;;;8.13;2.53;;;12.70;99.90;;;;;;5053671;28;20052;-73
2023/03/13 10:13:49;;;;;;;10.75;2.72;;;12.70;99.90;;;;;;5053158;28;20044;-73
2023/03/13 10:16:28;;;;;;;12.75;3.55;;;12.90;99.90;;;;;;5053597;28;20077;-72
2023/03/13 10:18:57;;;;;;;12.93;2.80;;;13.00;99.90;;;;;;5035825;28;20083;-73
2023/03/13 10:21:30;;;;;;;13.32;3.55;;;13.10;99.90;;;;;;5035918;28;20465;-73
2023/03/13 10:24:17;;;;;;;12.60;3.30;;;13.10;99.90;;;;;;5053107;28;20045;-73
2023/03/13 10:26:43;;;;;;;16.60;3.30;;;13.10;99.90;;;;;;5053486;28;20041;-74
2023/03/13 10:29:26;;;;;;;9.35;2.63;;;13.10;99.90;;;;;;5053290;28;20502;-75
2023/03/13 10:31:56;;;;;;;9.63;2.60;;;13.10;99.90;;;;;;5035450;28;20055;-75
2023/03/13 10:34:24;;;;;;;13.77;4.05;;;13.30;99.90;;;;;;5035318;28;20047;-75
2023/03/13 10:36:56;;;;;;;13.73;3.05;;;13.20;99.90;;;;;;5052830;28;20163;-74
2023/03/13 10:39:23;;;;;;;6.63;2.30;;;13.30;99.90;;;;;;5041078;28;20091;-75
2023/03/13 10:41:50;;;;;;;16.17;4.70;;;13.40;99.90;;;;;;5046204;28;20037;-74
2023/03/13 10:44:21;;;;;;;13.32;3.03;;;13.40;99.90;;;;;;5034671;28;20135;-74
2023/03/13 10:46:49;;;;;;;24.70;3.20;;;13.50;99.90;;;;;;5059578;28;20040;-75
2023/03/13 10:49:20;;;;;;;15.07;3.92;;;13.50;99.90;;;;;;5071009;28;20040;-75
2023/03/13 10:51:47;;;;;;;19.52;3.78;;;13.60;99.90;;;;;;5072702;28;20048;-73
2023/03/13 10:54:21;;;;;;;13.13;3.45;;;13.60;99.90;;;;;;5069028;28;20039;-72
2023/03/13 10:56:47;;;;;;;17.60;3.47;;;13.60;99.90;;;;;;5062299;28;20044;-72
2023/03/13 10:59:24;;;;;;;12.82;3.70;;;13.60;99.90;;;;;;5072378;28;20039;-75
2023/03/13 11:01:52;;;;;;;15.80;3.53;;;13.60;99.90;;;;;;5072749;28;20037;-73
2023/03/13 11:04:29;;;;;;;14.40;4.00;;;13.50;99.90;;;;;;5072158;28;20598;-75
2023/03/13 11:07:34;;;;;;;10.07;3.08;;;13.60;99.90;;;;;;5072512;28;20041;-75
2023/03/13 11:10:19;;;;;;;10.55;3.10;;;13.50;99.90;;;;;;5010462;28;20102;-75
2023/03/13 11:12:50;;;;;;;14.88;3.65;;;13.60;99.90;;;;;;5053876;28;20044;-75
2023/03/13 11:15:18;;;;;;;14.32;3.55;;;13.60;99.90;;;;;;5072172;28;20515;-73
2023/03/13 11:17:51;;;;;;;14.15;4.25;;;13.60;99.90;;;;;;5054593;28;20048;-73
2023/03/13 11:20:26;;;;;;;18.73;4.03;;;13.60;99.90;;;;;;5072264;28;20040;-73
2023/03/13 11:23:13;;;;;;;14.43;4.35;;;13.60;99.90;;;;;;5072367;28;20072;-73
2023/03/13 11:26:06;;;;;;;17.02;3.30;;;13.60;99.90;;;;;;5071679;28;20036;-72
2023/03/13 11:29:10;;;;;;;15.17;3.57;;;13.80;99.90;;;;;;5053599;28;20084;-72
2023/03/13 11:31:43;;;;;;;13.95;3.00;;;14.00;99.90;;;;;;5030427;28;20282;-72
2023/03/13 11:34:25;;;;;;;13.20;3.05;;;14.00;99.90;;;;;;5071706;28;20067;-72
2023/03/13 11:37:18;;;;;;;9.10;2.58;;;14.00;99.90;;;;;;5071655;28;20032;-72
2023/03/13 11:40:09;;;;;;;8.15;2.65;;;14.00;99.90;;;;;;5068615;28;20064;-73
2023/03/13 11:43:05;;;;;;;13.05;4.18;;;14.00;99.90;;;;;;5070637;28;20047;-73
2023/03/13 11:45:40;;;;;;;7.22;2.67;;;13.90;99.90;;;;;;5071711;28;20047;-70
2023/03/13 11:48:34;;;;;;;12.80;2.97;;;13.90;99.90;;;;;;5048024;28;20073;-72
2023/03/13 11:51:23;;;;;;;9.77;2.50;;;13.80;99.90;;;;;;5041396;28;20090;-72
2023/03/13 11:54:12;;;;;;;13.40;2.75;;;13.80;99.90;;;;;;5031633;28;20447;-72
2023/03/13 11:57:12;;;;;;;9.63;2.45;;;13.80;99.90;;;;;;5031897;28;20128;-71
2023/03/13 11:59:57;;;;;;;9.52;2.95;;;13.80;99.90;;;;;;5031827;28;20037;-71
2023/03/13 12:02:39;;;;;;;7.85;2.55;;;13.80;99.90;;;;;;5031998;28;20045;-70
2023/03/13 12:05:09;;;;;;;6.65;2.55;;;13.90;99.90;;;;;;5013811;28;20038;-70
2023/03/13 12:07:39;;;;;;;7.45;1.98;;;13.90;99.90;;;;;;5063117;22;20044;-71
2023/03/13 12:10:20;;;;;;;8.00;2.08;;;14.10;99.90;;;;;;5053857;28;20036;-70
2023/03/13 12:12:54;;;;;;;12.27;3.65;;;14.10;99.90;;;;;;5071709;28;20036;-70
2023/03/13 12:15:28;;;;;;;8.50;2.42;;;14.30;99.90;;;;;;5071516;28;20041;-70
2023/03/13 12:18:01;;;;;;;5.88;1.52;;;14.30;99.90;;;;;;5055814;28;20041;-70
2023/03/13 12:20:49;;;;;;;8.88;2.45;;;14.30;99.90;;;;;;5052971;28;20293;-70
2023/03/13 12:23:43;;;;;;;8.98;2.47;;;14.40;99.90;;;;;;5055718;28;20444;-70
2023/03/13 12:26:15;;;;;;;7.78;2.33;;;14.50;99.90;;;;;;5021663;28;20057;-70
2023/03/13 12:28:46;;;;;;;6.95;2.35;;;14.70;99.90;;;;;;5055356;28;20510;-70
2023/03/13 12:31:46;;;;;;;9.63;2.60;;;14.70;99.90;;;;;;5073541;28;20041;-70
2023/03/13 12:34:21;;;;;;;8.88;2.53;;;14.70;99.90;;;;;;5075275;28;20032;-70
2023/03/13 12:36:59;;;;;;;10.63;3.08;;;14.70;99.90;;;;;;5075686;28;20123;-70
2023/03/13 12:39:48;;;;;;;14.63;2.63;;;14.70;99.90;;;;;;5057467;28;20411;-70
2023/03/13 12:42:21;;;;;;;10.52;2.40;;;14.90;99.90;;;;;;5075447;28;20068;-70
2023/03/13 12:44:47;;;;;;;7.47;2.30;;;14.90;99.90;;;;;;5057048;28;20048;-71
2023/03/13 12:47:27;;;;;;;11.30;2.75;;;15.00;99.90;;;;;;5074853;28;20047;-69
2023/03/13 12:50:18;;;;;;;8.65;2.63;;;14.90;99.90;;;;;;5075457;28;20114;-69
2023/03/13 12:53:24;;;;;;;9.07;2.70;;;14.80;99.90;;;;;;5075120;28;20131;-70
2023/03/13 12:56:26;;;;;;;10.93;3.30;;;14.80;99.90;;;;;;5075297;28;20054;-71